createdAt,value
2018-08-24T04:03:30.729Z,99.90
2018-08-24T04:06:03.069Z,99.90
2018-08-24T04:08:42.188Z,99.90
2018-08-24T04:11:14.601Z,99.90
2018-08-24T04:13:47.012Z,99.90
2018-08-24T04:16:19.422Z,99.90
2018-08-24T04:18:51.776Z,99.90
2018-08-24T04:21:24.173Z,99.90
2018-08-24T04:23:56.558Z,99.90
2018-08-24T04:26:28.917Z,99.90
2018-08-24T04:29:01.275Z,99.90
2018-08-24T04:31:33.662Z,99.90
2018-08-24T04:34:05.998Z,99.90
2018-08-24T04:36:38.308Z,99.90
2018-08-24T04:39:10.632Z,99.90
2018-08-24T04:41:42.956Z,99.90
2018-08-24T04:44:15.281Z,99.90
2018-08-24T04:46:47.576Z,99.90
2018-08-24T04:49:19.920Z,99.90
2018-08-24T04:51:52.272Z,99.90
2018-08-24T04:54:31.234Z,99.90
2018-08-24T04:57:03.561Z,99.90
2018-08-24T04:59:35.891Z,99.90
2018-08-24T05:02:08.989Z,99.90
2018-08-24T05:04:41.311Z,99.90
2018-08-24T05:07:13.649Z,99.90
2018-08-24T05:09:45.972Z,99.90
2018-08-24T05:12:18.331Z,99.90
2018-08-24T05:14:50.664Z,99.90
2018-08-24T05:17:22.993Z,99.90
2018-08-24T05:19:55.322Z,99.90
2018-08-24T05:22:27.645Z,99.90
2018-08-24T05:24:59.972Z,99.90
2018-08-24T05:27:32.288Z,99.90
2018-08-24T05:30:04.917Z,99.90
2018-08-24T05:32:37.233Z,99.90
2018-08-24T05:35:09.560Z,99.90
2018-08-24T05:37:41.888Z,99.90
2018-08-24T05:40:14.203Z,99.90
2018-08-24T05:42:46.529Z,99.90
2018-08-24T05:45:19.108Z,99.90
2018-08-24T05:47:51.437Z,99.90
2018-08-24T05:50:23.773Z,99.90
2018-08-24T05:52:56.088Z,99.90
2018-08-24T05:55:28.478Z,99.90
2018-08-24T05:58:00.755Z,99.90
2018-08-24T06:00:33.085Z,99.90
2018-08-24T06:03:05.581Z,99.90
2018-08-24T06:05:37.914Z,99.90
2018-08-24T06:08:10.236Z,99.90
2018-08-24T06:10:43.373Z,99.90
2018-08-24T06:13:15.789Z,99.90
2018-08-24T06:15:48.157Z,99.90
2018-08-24T06:18:20.449Z,99.90
2018-08-24T06:20:53.024Z,99.90
2018-08-24T06:23:25.338Z,99.80
2018-08-24T06:25:57.657Z,99.80
2018-08-24T06:28:29.973Z,99.90
2018-08-24T06:31:02.296Z,99.50
2018-08-24T06:33:34.621Z,99.60
2018-08-24T06:36:06.948Z,99.30
2018-08-24T06:38:39.272Z,99.30
2018-08-24T06:41:11.601Z,99.30
2018-08-24T06:43:43.924Z,99.20
2018-08-24T06:46:16.252Z,98.90
2018-08-24T06:48:48.573Z,98.80
2018-08-24T06:51:20.905Z,98.90
2018-08-24T06:53:53.257Z,98.60
2018-08-24T06:56:25.548Z,98.00
2018-08-24T06:58:57.860Z,98.10
2018-08-24T07:01:30.156Z,97.60
2018-08-24T07:04:02.476Z,97.60
2018-08-24T07:06:34.780Z,97.70
2018-08-24T07:09:07.416Z,98.00
2018-08-24T07:11:39.737Z,98.20
2018-08-24T07:14:12.057Z,98.20
2018-08-24T07:16:44.358Z,98.10
2018-08-24T07:19:16.676Z,97.90
2018-08-24T07:21:48.994Z,98.20
2018-08-24T07:24:21.324Z,97.90
2018-08-24T07:26:53.653Z,98.00
2018-08-24T07:29:25.973Z,98.00
2018-08-24T07:31:59.273Z,98.00
2018-08-24T07:34:31.612Z,98.30
2018-08-24T07:37:04.240Z,98.20
2018-08-24T07:39:36.572Z,98.30
2018-08-24T07:42:08.909Z,97.70
2018-08-24T07:44:41.242Z,97.90
2018-08-24T07:47:13.542Z,97.60
2018-08-24T07:49:45.855Z,97.30
2018-08-24T07:52:18.165Z,97.20
2018-08-24T07:54:50.768Z,97.30
2018-08-24T07:57:23.084Z,97.40
2018-08-24T07:59:55.421Z,96.80
2018-08-24T08:02:27.768Z,96.90
2018-08-24T08:05:00.104Z,96.70
2018-08-24T08:07:32.431Z,96.60
2018-08-24T08:10:05.601Z,96.30
2018-08-24T08:12:37.957Z,96.60
2018-08-24T08:15:10.262Z,96.40
2018-08-24T08:17:42.609Z,96.50
2018-08-24T08:20:14.961Z,96.20
2018-08-24T08:22:47.293Z,96.40
2018-08-24T08:25:19.620Z,96.30
2018-08-24T08:27:51.944Z,96.20
2018-08-24T08:30:24.285Z,96.10
2018-08-24T08:32:56.637Z,95.80
2018-08-24T08:35:28.982Z,95.80
2018-08-24T08:38:01.309Z,95.40
2018-08-24T08:40:33.631Z,95.60
2018-08-24T08:43:05.963Z,95.20
2018-08-24T08:45:38.289Z,95.30
2018-08-24T08:48:10.624Z,95.10
2018-08-24T08:50:42.985Z,94.80
2018-08-24T08:53:15.308Z,94.50
2018-08-24T08:55:48.396Z,94.20
2018-08-24T08:58:20.817Z,94.40
2018-08-24T09:00:53.397Z,93.90
2018-08-24T09:03:25.972Z,93.70
2018-08-24T09:05:58.342Z,93.20
2018-08-24T09:08:30.626Z,93.10
2018-08-24T09:11:02.961Z,93.60
2018-08-24T09:13:35.322Z,95.70
2018-08-24T09:16:07.652Z,96.30
2018-08-24T09:18:40.155Z,97.70
2018-08-24T09:21:12.612Z,98.90
2018-08-24T09:23:44.973Z,99.60
2018-08-24T09:26:17.305Z,99.90
2018-08-24T09:28:49.780Z,99.90
2018-08-24T09:31:22.119Z,99.90
2018-08-24T09:33:54.446Z,99.90
2018-08-24T09:36:26.764Z,99.90
2018-08-24T09:38:59.084Z,98.40
2018-08-24T09:41:31.417Z,97.30
2018-08-24T09:44:03.736Z,96.30
2018-08-24T09:46:36.139Z,94.60
2018-08-24T09:49:08.546Z,92.40
2018-08-24T09:51:40.851Z,92.50
2018-08-24T09:54:13.199Z,92.80
2018-08-24T09:56:45.519Z,91.20
2018-08-24T09:59:17.818Z,92.50
2018-08-24T10:01:50.128Z,92.20
2018-08-24T10:04:22.567Z,92.80
2018-08-24T10:06:54.878Z,91.80
2018-08-24T10:09:27.184Z,90.00
2018-08-24T10:11:59.504Z,90.80
2018-08-24T10:14:31.806Z,91.00
2018-08-24T10:17:04.125Z,90.50
2018-08-24T10:19:36.432Z,88.60
2018-08-24T10:22:08.752Z,90.30
2018-08-24T10:24:41.076Z,87.10
2018-08-24T10:27:13.380Z,86.90
2018-08-24T10:29:45.727Z,84.20
2018-08-24T10:32:18.013Z,82.10
2018-08-24T10:34:50.347Z,78.30
2018-08-24T10:37:22.643Z,79.40
2018-08-24T10:39:55.289Z,76.90
2018-08-24T10:42:27.601Z,79.90
2018-08-24T10:44:59.908Z,79.00
2018-08-24T10:47:32.744Z,80.40
2018-08-24T10:50:05.344Z,81.80
2018-08-24T10:52:37.745Z,78.50
2018-08-24T10:55:10.385Z,77.40
2018-08-24T10:57:42.700Z,78.40
2018-08-24T11:00:15.005Z,73.30
2018-08-24T11:02:47.308Z,75.40
2018-08-24T11:05:19.642Z,76.70
2018-08-24T11:07:51.993Z,75.70
2018-08-24T11:10:24.219Z,72.70
2018-08-24T11:12:56.534Z,72.00
2018-08-24T11:15:28.827Z,70.10
2018-08-24T11:18:01.138Z,71.50
2018-08-24T11:20:33.768Z,70.10
2018-08-24T11:23:06.251Z,69.50
2018-08-24T11:25:38.493Z,70.50
2018-08-24T11:28:10.792Z,70.80
2018-08-24T11:30:43.089Z,70.20
2018-08-24T11:33:15.409Z,68.50
2018-08-24T11:35:47.719Z,67.90
2018-08-24T11:38:20.019Z,65.70
2018-08-24T11:40:52.308Z,68.50
2018-08-24T11:43:24.609Z,67.90
2018-08-24T11:45:56.909Z,65.30
2018-08-24T11:48:29.213Z,63.20
2018-08-24T11:51:01.512Z,62.10
2018-08-24T11:53:33.823Z,63.20
2018-08-24T11:56:06.125Z,64.10
2018-08-24T11:58:38.708Z,62.80
2018-08-24T12:01:11.015Z,64.20
2018-08-24T12:03:43.353Z,63.90
2018-08-24T12:06:15.637Z,66.30
2018-08-24T12:08:47.960Z,64.70
2018-08-24T12:11:20.282Z,61.40
2018-08-24T12:13:52.660Z,60.10
2018-08-24T12:16:24.888Z,62.20
2018-08-24T12:18:57.381Z,58.80
2018-08-24T12:21:29.815Z,58.30
2018-08-24T12:24:02.084Z,57.60
2018-08-24T12:26:34.684Z,56.60
2018-08-24T12:29:06.989Z,57.40
2018-08-24T12:31:39.409Z,56.40
2018-08-24T12:34:11.709Z,56.50
2018-08-24T12:36:43.997Z,58.60
2018-08-24T12:39:16.309Z,56.70
2018-08-24T12:41:48.609Z,58.20
2018-08-24T12:44:20.916Z,56.40
2018-08-24T12:46:53.208Z,58.10
2018-08-24T12:49:25.587Z,54.90
2018-08-24T12:51:57.839Z,56.40
2018-08-24T12:54:30.145Z,52.90
2018-08-24T12:57:02.541Z,52.00
2018-08-24T12:59:34.871Z,55.30
2018-08-24T13:02:07.216Z,52.90
2018-08-24T13:04:39.532Z,53.30
2018-08-24T13:07:11.857Z,51.20
2018-08-24T13:09:44.189Z,51.20
2018-08-24T13:12:16.944Z,50.80
2018-08-24T13:14:49.293Z,48.80
2018-08-24T13:17:21.608Z,50.40
2018-08-24T13:19:53.937Z,52.40
2018-08-24T13:22:26.260Z,51.10
2018-08-24T13:24:58.577Z,49.20
2018-08-24T13:27:30.897Z,50.20
2018-08-24T13:30:03.227Z,49.90
2018-08-24T13:32:35.549Z,47.90
2018-08-24T13:35:07.676Z,49.40
2018-08-24T13:37:39.985Z,49.00
2018-08-24T13:40:12.400Z,50.90
2018-08-24T13:42:44.722Z,48.70
2018-08-24T13:45:17.050Z,50.50
2018-08-24T13:47:49.396Z,51.60
2018-08-24T13:50:21.714Z,49.60
2018-08-24T13:52:54.056Z,48.50
2018-08-24T13:55:26.388Z,49.10
2018-08-24T13:57:58.714Z,49.10
2018-08-24T14:00:31.028Z,49.20
2018-08-24T14:03:03.365Z,51.10
2018-08-24T14:05:35.685Z,49.00
2018-08-24T14:08:08.028Z,49.80
2018-08-24T14:10:40.333Z,48.50
2018-08-24T14:13:12.769Z,49.20
2018-08-24T14:15:44.973Z,50.10
2018-08-24T14:18:17.291Z,51.70
2018-08-24T14:20:49.618Z,48.50
2018-08-24T14:23:21.939Z,50.40
2018-08-24T14:28:26.424Z,49.70
2018-08-24T14:30:58.732Z,50.20
2018-08-24T14:33:31.046Z,48.80
2018-08-24T14:36:03.357Z,49.70
2018-08-24T14:38:35.677Z,47.10
2018-08-24T14:41:08.341Z,48.90
2018-08-24T14:43:40.665Z,47.40
2018-08-24T14:46:12.983Z,46.40
2018-08-24T14:48:45.297Z,46.90
2018-08-24T14:51:17.619Z,47.20
2018-08-24T14:53:49.942Z,47.50
2018-08-24T14:56:22.244Z,48.30
2018-08-24T14:58:54.568Z,49.00
2018-08-24T15:01:26.942Z,50.00
2018-08-24T15:03:59.280Z,49.40
2018-08-24T15:06:31.601Z,50.00
2018-08-24T15:09:06.802Z,47.30
2018-08-24T15:11:39.121Z,48.20
2018-08-24T15:14:11.456Z,48.80
2018-08-24T15:16:43.777Z,49.90
2018-08-24T15:19:16.091Z,50.40
2018-08-24T15:21:48.420Z,48.80
2018-08-24T15:24:20.797Z,48.00
2018-08-24T15:26:53.194Z,48.70
2018-08-24T15:29:25.510Z,48.40
2018-08-24T15:31:57.812Z,48.90
2018-08-24T15:34:30.140Z,50.30
2018-08-24T15:37:02.448Z,50.30
2018-08-24T15:39:34.772Z,51.80
2018-08-24T15:42:07.089Z,52.60
2018-08-24T15:44:39.414Z,51.50
2018-08-24T15:47:11.727Z,50.40
2018-08-24T15:49:44.048Z,51.00
2018-08-24T15:52:16.362Z,50.10
2018-08-24T15:54:48.689Z,52.00
2018-08-24T15:57:20.981Z,51.30
2018-08-24T15:59:53.289Z,51.70
2018-08-24T16:02:25.580Z,51.00
2018-08-24T16:04:57.884Z,52.60
2018-08-24T16:07:30.190Z,52.10
2018-08-24T16:10:02.488Z,52.70
2018-08-24T16:12:34.790Z,52.00
2018-08-24T16:15:07.400Z,52.60
2018-08-24T16:17:39.937Z,51.40
2018-08-24T16:20:12.240Z,53.10
2018-08-24T16:22:44.545Z,51.10
2018-08-24T16:25:16.896Z,52.60
2018-08-24T16:27:49.169Z,51.60
2018-08-24T16:30:21.537Z,51.70
2018-08-24T16:32:53.781Z,52.70
2018-08-24T16:35:26.091Z,53.30
2018-08-24T16:37:58.385Z,52.70
2018-08-24T16:40:30.697Z,53.10
2018-08-24T16:43:02.998Z,53.20
2018-08-24T16:45:35.317Z,54.20
2018-08-24T16:48:07.629Z,54.20
2018-08-24T16:50:39.939Z,54.60
2018-08-24T16:53:12.252Z,55.20
2018-08-24T16:55:44.637Z,54.50
2018-08-24T16:58:16.951Z,54.70
2018-08-24T17:00:49.277Z,54.50
2018-08-24T17:03:21.602Z,54.20
2018-08-24T17:05:53.933Z,53.50
2018-08-24T17:08:26.305Z,53.20
2018-08-24T17:10:58.620Z,54.70
2018-08-24T17:13:30.937Z,54.40
2018-08-24T17:16:03.265Z,54.40
2018-08-24T17:18:35.584Z,54.00
2018-08-24T17:21:07.924Z,54.90
2018-08-24T17:23:40.249Z,54.70
2018-08-24T17:26:12.581Z,54.90
2018-08-24T17:28:44.966Z,55.10
2018-08-24T17:31:17.551Z,55.60
2018-08-24T17:33:49.877Z,55.80
2018-08-24T17:36:22.209Z,55.90
2018-08-24T17:38:54.520Z,54.80
2018-08-24T17:41:26.843Z,55.80
2018-08-24T17:43:59.189Z,55.10
2018-08-24T17:46:31.517Z,55.40
2018-08-24T17:49:03.844Z,55.50
2018-08-24T17:51:36.163Z,55.80
2018-08-24T17:54:08.496Z,55.70
2018-08-24T17:56:40.855Z,56.30
2018-08-24T17:59:13.142Z,55.90
2018-08-24T18:01:45.442Z,56.00
2018-08-24T18:04:17.738Z,56.50
2018-08-24T18:06:50.043Z,57.70
2018-08-24T18:09:22.350Z,57.80
2018-08-24T18:11:54.661Z,57.20
2018-08-24T18:14:26.981Z,56.60
2018-08-24T18:16:59.289Z,56.40
2018-08-24T18:19:31.825Z,56.90
2018-08-24T18:22:04.125Z,57.00
2018-08-24T18:24:36.535Z,57.80
2018-08-24T18:27:08.836Z,57.00
2018-08-24T18:29:41.133Z,59.20
2018-08-24T18:32:13.444Z,58.00
2018-08-24T18:34:45.762Z,57.80
2018-08-24T18:37:18.090Z,57.80
2018-08-24T18:39:50.336Z,59.60
2018-08-24T18:42:22.641Z,59.00
2018-08-24T18:44:54.931Z,58.00
2018-08-24T18:47:27.244Z,58.70
2018-08-24T18:49:59.550Z,58.80
2018-08-24T18:52:31.861Z,58.70
2018-08-24T18:55:04.698Z,58.90
2018-08-24T18:57:37.021Z,59.60
2018-08-24T19:00:09.624Z,59.20
2018-08-24T19:02:42.989Z,58.80
2018-08-24T19:05:15.330Z,59.00
2018-08-24T19:07:47.625Z,59.50
2018-08-24T19:10:19.944Z,60.50
2018-08-24T19:12:52.276Z,60.40
2018-08-24T19:15:24.621Z,60.50
2018-08-24T19:17:56.951Z,60.90
2018-08-24T19:20:29.301Z,59.50
2018-08-24T19:23:01.793Z,60.30
2018-08-24T19:25:34.116Z,60.00
2018-08-24T19:28:06.444Z,60.80
2018-08-24T19:30:38.749Z,60.70
2018-08-24T19:33:11.068Z,61.10
2018-08-24T19:35:43.384Z,61.60
2018-08-24T19:38:16.029Z,62.00
2018-08-24T19:40:48.348Z,62.30
2018-08-24T19:43:20.669Z,61.30
2018-08-24T19:45:52.984Z,62.00
2018-08-24T19:48:25.312Z,62.20
2018-08-24T19:50:57.621Z,62.40
2018-08-24T19:53:29.942Z,61.10
2018-08-24T19:56:02.256Z,61.40
2018-08-24T19:58:34.556Z,61.80
2018-08-24T20:01:06.865Z,61.90
2018-08-24T20:03:39.176Z,62.50
2018-08-24T20:06:11.637Z,61.50
2018-08-24T20:08:44.212Z,62.00
2018-08-24T20:11:16.512Z,62.30
2018-08-24T20:13:48.824Z,62.50
2018-08-24T20:16:21.130Z,62.70
2018-08-24T20:18:53.433Z,62.50
2018-08-24T20:21:25.725Z,62.70
2018-08-24T20:23:58.102Z,62.20
2018-08-24T20:26:30.369Z,63.10
2018-08-24T20:29:02.651Z,63.00
2018-08-24T20:31:34.953Z,63.30
2018-08-24T20:34:07.256Z,62.70
2018-08-24T20:36:39.560Z,63.80
2018-08-24T20:39:11.864Z,63.00
2018-08-24T20:41:44.168Z,64.00
2018-08-24T20:44:16.484Z,63.40
2018-08-24T20:46:48.833Z,64.10
2018-08-24T20:49:21.133Z,63.80
2018-08-24T20:51:53.444Z,65.00
2018-08-24T20:54:25.752Z,65.00
2018-08-24T20:56:58.063Z,63.90
2018-08-24T20:59:30.368Z,64.60
2018-08-24T21:02:02.701Z,64.60
2018-08-24T21:04:34.997Z,64.60
2018-08-24T21:07:07.305Z,64.30
2018-08-24T21:09:39.662Z,64.60
2018-08-24T21:12:11.977Z,65.20
2018-08-24T21:14:44.281Z,64.50
2018-08-24T21:17:16.586Z,65.20
2018-08-24T21:19:48.889Z,65.80
2018-08-24T21:22:21.210Z,66.80
2018-08-24T21:24:53.503Z,66.10
2018-08-24T21:27:25.816Z,65.50
2018-08-24T21:29:58.117Z,66.10
2018-08-24T21:32:30.415Z,66.10
2018-08-24T21:35:02.704Z,66.40
2018-08-24T21:37:35.008Z,66.10
2018-08-24T21:40:07.304Z,66.80
2018-08-24T21:42:39.620Z,66.80
2018-08-24T21:45:11.926Z,66.30
2018-08-24T21:47:44.220Z,66.40
2018-08-24T21:50:16.910Z,66.20
2018-08-24T21:52:49.305Z,66.30
2018-08-24T21:55:21.647Z,66.80
2018-08-24T21:57:53.986Z,65.60
2018-08-24T22:00:26.265Z,66.80
2018-08-24T22:02:58.598Z,66.00
2018-08-24T22:05:30.916Z,66.10
2018-08-24T22:08:03.243Z,66.50
2018-08-24T22:10:35.553Z,66.60
2018-08-24T22:13:07.875Z,66.60
2018-08-24T22:15:40.183Z,67.20
2018-08-24T22:18:12.500Z,66.30
2018-08-24T22:20:44.812Z,67.00
2018-08-24T22:23:17.165Z,66.30
2018-08-24T22:25:49.478Z,65.60
2018-08-24T22:28:21.792Z,65.10
2018-08-24T22:30:54.105Z,66.40
2018-08-24T22:33:26.440Z,65.80
2018-08-24T22:35:58.757Z,66.60
2018-08-24T22:38:31.088Z,67.00
2018-08-24T22:41:03.395Z,67.10
2018-08-24T22:43:35.776Z,66.20
2018-08-24T22:46:08.089Z,66.10
2018-08-24T22:48:40.416Z,66.90
2018-08-24T22:51:12.725Z,66.40
2018-08-24T22:53:45.048Z,67.30
2018-08-24T22:56:17.367Z,67.10
2018-08-24T22:58:49.800Z,66.80
2018-08-24T23:01:22.392Z,67.00
2018-08-24T23:03:54.716Z,67.10
2018-08-24T23:06:27.064Z,67.40
2018-08-24T23:08:59.392Z,66.70
2018-08-24T23:11:31.801Z,67.20
2018-08-24T23:14:04.157Z,67.20
2018-08-24T23:16:36.480Z,68.00
2018-08-24T23:19:08.820Z,67.10
2018-08-24T23:21:41.337Z,67.70
2018-08-24T23:24:13.712Z,67.40
2018-08-24T23:26:46.028Z,68.00
2018-08-24T23:29:18.376Z,68.50
2018-08-24T23:31:50.713Z,68.30
2018-08-24T23:34:23.040Z,69.10
2018-08-24T23:36:55.373Z,68.10
2018-08-24T23:39:27.701Z,68.60
2018-08-24T23:42:00.321Z,68.90
2018-08-24T23:44:32.752Z,69.40
2018-08-24T23:47:05.153Z,69.60
2018-08-24T23:49:37.521Z,69.80
2018-08-24T23:52:09.845Z,68.80
2018-08-24T23:54:42.177Z,70.00
2018-08-24T23:57:14.769Z,69.10
2018-08-24T23:59:48.097Z,69.00
